TimeJST,TemperatureF,Dew PointF,Humidity,Sea Level PressureIn,VisibilityMPH,Wind Direction,Wind SpeedMPH,Gust SpeedMPH,PrecipitationIn,Events,Conditions,WindDirDegrees,DateUTC
12:00 AM,81,76,82,29.92,,NE,5.8,,,,,50,2013-09-09 15:00:00
3:00 AM,80,76,84,29.86,6,NNE,5.8,,,,Scattered Clouds,30,2013-09-09 18:00:00
6:00 AM,80,76,83,29.86,9,NE,8.1,,,,Scattered Clouds,40,2013-09-09 21:00:00
6:00 AM,78.8,73.4,83,29.86,6.2,NNE,6.9,-,N/A,,Partly Cloudy,30,2013-09-09 21:00:00
7:00 AM,80.6,75.2,84,29.86,6.2,NE,9.2,-,N/A,,Partly Cloudy,50,2013-09-09 22:00:00
8:00 AM,82.4,75.2,79,29.86,6.2,NE,10.4,-,N/A,,Partly Cloudy,40,2013-09-09 23:00:00
9:00 AM,84,77,75,29.89,9,NE,6.9,,,,Partly Cloudy,50,2013-09-10 00:00:00
9:00 AM,84.2,77.0,79,29.86,6.2,NE,10.4,-,N/A,,Partly Cloudy,50,2013-09-10 00:00:00
10:00 AM,84.2,77.0,79,29.89,6.2,NE,11.5,-,N/A,,Partly Cloudy,50,2013-09-10 01:00:00
11:00 AM,86.0,77.0,74,29.86,6.2,ENE,10.4,-,N/A,,Partly Cloudy,60,2013-09-10 02:00:00
12:00 PM,88,77,63,29.88,12,East,10.4,,,,Partly Cloudy,90,2013-09-10 03:00:00
12:00 PM,86.0,77.0,74,29.86,6.2,ENE,10.4,-,N/A,,Partly Cloudy,60,2013-09-10 03:00:00
1:00 PM,86.0,77.0,74,29.86,6.2,ENE,10.4,-,N/A,,Partly Cloudy,60,2013-09-10 04:00:00
2:00 PM,86.0,75.2,70,29.83,6.2,ENE,11.5,-,N/A,,Partly Cloudy,60,2013-09-10 05:00:00
3:00 PM,88,77,62,29.84,9,ENE,11.5,,,,Scattered Clouds,70,2013-09-10 06:00:00
3:00 PM,86.0,77.0,74,29.83,6.2,ENE,12.7,-,N/A,,Partly Cloudy,60,2013-09-10 06:00:00
4:00 PM,86.0,77.0,74,29.83,6.2,NE,11.5,-,N/A,,Partly Cloudy,50,2013-09-10 07:00:00
5:00 PM,84.2,75.2,74,29.83,6.2,NE,12.7,-,N/A,,Partly Cloudy,40,2013-09-10 08:00:00
6:00 PM,86,77,69,29.83,12,NE,11.5,,,,Scattered Clouds,40,2013-09-10 09:00:00
6:00 PM,84.2,77.0,79,29.83,6.2,NE,12.7,-,N/A,,Partly Cloudy,50,2013-09-10 09:00:00
7:00 PM,82.4,77.0,84,29.83,6.2,NE,15.0,-,N/A,,Partly Cloudy,50,2013-09-10 10:00:00
8:00 PM,82.4,75.2,79,29.83,6.2,NE,13.8,-,N/A,,Partly Cloudy,50,2013-09-10 11:00:00
9:00 PM,83,78,82,29.87,12,NE,9.2,,,,Scattered Clouds,50,2013-09-10 12:00:00